createdAt,value
2022-09-17T00:00:24.000Z,73.18
2022-09-17T00:01:26.000Z,73.08
2022-09-17T00:02:25.000Z,73.36
2022-09-17T00:03:25.000Z,73.65
2022-09-17T00:04:24.000Z,73.46
2022-09-17T00:05:24.000Z,73.39
2022-09-17T00:06:24.000Z,73.20
2022-09-17T00:07:24.000Z,73.37
2022-09-17T00:08:24.000Z,73.78
2022-09-17T00:09:24.000Z,73.86
2022-09-17T00:10:24.000Z,73.93
2022-09-17T00:11:27.000Z,73.64
2022-09-17T00:12:24.000Z,74.04
2022-09-17T00:13:24.000Z,74.01
2022-09-17T00:14:24.000Z,73.50
2022-09-17T00:15:24.000Z,74.15
2022-09-17T00:16:38.000Z,74.12
2022-09-17T00:17:24.000Z,74.31
2022-09-17T00:18:24.000Z,74.31
2022-09-17T00:19:25.000Z,74.62
2022-09-17T00:20:26.000Z,74.49
2022-09-17T00:21:25.000Z,74.38
2022-09-17T00:22:24.000Z,74.43
2022-09-17T00:23:24.000Z,74.59
2022-09-17T00:24:25.000Z,74.43
2022-09-17T00:25:24.000Z,74.34
2022-09-17T00:26:25.000Z,74.16
2022-09-17T00:27:24.000Z,74.21
2022-09-17T00:28:25.000Z,74.24
2022-09-17T00:29:24.000Z,74.29
2022-09-17T00:30:24.000Z,74.27
2022-09-17T00:31:26.000Z,74.26
2022-09-17T00:32:25.000Z,74.33
2022-09-17T00:33:24.000Z,74.12
2022-09-17T00:34:24.000Z,74.04
2022-09-17T00:35:26.000Z,74.06
2022-09-17T00:36:25.000Z,74.32
2022-09-17T00:37:24.000Z,73.96
2022-09-17T00:38:25.000Z,74.12
2022-09-17T00:39:24.000Z,73.90
2022-09-17T00:40:25.000Z,73.61
2022-09-17T00:41:28.000Z,73.83
2022-09-17T00:42:24.000Z,73.84
2022-09-17T00:43:34.000Z,74.16
2022-09-17T00:44:34.000Z,73.65
2022-09-17T00:45:26.000Z,73.87
2022-09-17T00:46:33.000Z,73.87
2022-09-17T00:47:31.000Z,74.04
2022-09-17T00:48:24.000Z,74.19
2022-09-17T00:49:27.000Z,74.70
2022-09-17T00:50:34.000Z,74.75
2022-09-17T00:51:31.000Z,74.49
2022-09-17T00:52:29.000Z,74.31
2022-09-17T00:53:24.000Z,74.27
2022-09-17T00:54:25.000Z,74.64
2022-09-17T00:55:32.000Z,74.69
2022-09-17T00:56:28.000Z,74.60
2022-09-17T00:57:25.000Z,74.40
2022-09-17T00:58:25.000Z,74.57
2022-09-17T00:59:25.000Z,74.40
2022-09-17T01:00:25.000Z,74.48
2022-09-17T01:01:24.000Z,74.76
2022-09-17T01:02:25.000Z,74.65
2022-09-17T01:03:25.000Z,74.87
2022-09-17T01:04:26.000Z,74.60
2022-09-17T01:05:35.000Z,74.72
2022-09-17T01:06:35.000Z,74.84
2022-09-17T01:07:34.000Z,74.67
2022-09-17T01:08:45.000Z,74.78
2022-09-17T01:09:34.000Z,74.56
2022-09-17T01:10:34.000Z,74.56
2022-09-17T01:11:49.000Z,74.46
2022-09-17T01:12:42.000Z,74.38
2022-09-17T01:13:34.000Z,74.22
2022-09-17T01:14:45.000Z,74.07
2022-09-17T01:15:39.000Z,74.11
2022-09-17T01:16:34.000Z,74.17
2022-09-17T01:17:47.000Z,74.05
2022-09-17T01:18:39.000Z,74.01
2022-09-17T01:19:34.000Z,74.09
2022-09-17T01:20:51.000Z,74.42
2022-09-17T01:21:34.000Z,74.46
2022-09-17T01:22:44.000Z,74.26
2022-09-17T01:23:34.000Z,74.27
2022-09-17T01:24:47.000Z,74.13
2022-09-17T01:25:49.000Z,74.39
2022-09-17T01:26:34.000Z,74.44
2022-09-17T01:27:47.000Z,74.25
2022-09-17T01:28:34.000Z,73.96
2022-09-17T01:29:34.000Z,74.14
2022-09-17T01:30:53.000Z,73.99
2022-09-17T01:31:34.000Z,73.67
2022-09-17T01:32:47.000Z,73.74
2022-09-17T01:33:44.000Z,73.72
2022-09-17T01:34:34.000Z,74.06
2022-09-17T01:35:36.000Z,74.16
2022-09-17T01:36:44.000Z,74.34
2022-09-17T01:37:34.000Z,74.01
2022-09-17T01:38:31.000Z,74.16
2022-09-17T01:39:34.000Z,74.50
2022-09-17T01:40:30.000Z,74.47
2022-09-17T01:41:33.000Z,74.56
2022-09-17T01:42:34.000Z,74.60
2022-09-17T01:43:34.000Z,74.66
2022-09-17T01:44:34.000Z,74.65
2022-09-17T01:45:38.000Z,74.56
2022-09-17T01:46:45.000Z,74.90
2022-09-17T01:47:33.000Z,74.77
2022-09-17T01:48:30.000Z,74.71
2022-09-17T01:49:25.000Z,74.71
2022-09-17T01:50:29.000Z,74.75
2022-09-17T01:51:28.000Z,74.98
2022-09-17T01:52:26.000Z,75.05
2022-09-17T01:53:30.000Z,74.83
2022-09-17T01:54:30.000Z,74.67
2022-09-17T01:55:30.000Z,74.72
2022-09-17T01:56:34.000Z,74.71
2022-09-17T01:57:45.000Z,74.71
2022-09-17T01:58:28.000Z,74.57
2022-09-17T01:59:38.000Z,74.51
2022-09-17T02:00:25.000Z,74.52
2022-09-17T02:01:30.000Z,74.56
2022-09-17T02:02:35.000Z,74.84
2022-09-17T02:03:33.000Z,74.85
2022-09-17T02:04:32.000Z,75.01
2022-09-17T02:05:33.000Z,74.80
2022-09-17T02:06:32.000Z,75.08
2022-09-17T02:07:27.000Z,74.83
2022-09-17T02:08:33.000Z,75.18
2022-09-17T02:09:37.000Z,75.23
2022-09-17T02:10:30.000Z,75.39
2022-09-17T02:11:25.000Z,75.34
2022-09-17T02:12:32.000Z,75.30
2022-09-17T02:13:33.000Z,75.38
2022-09-17T02:14:34.000Z,75.44
2022-09-17T02:15:31.000Z,75.19
2022-09-17T02:16:29.000Z,75.12
2022-09-17T02:17:45.000Z,75.38
2022-09-17T02:18:42.000Z,75.60
2022-09-17T02:19:30.000Z,75.38
2022-09-17T02:20:34.000Z,75.28
2022-09-17T02:21:39.000Z,75.22
2022-09-17T02:22:32.000Z,75.12
2022-09-17T02:23:30.000Z,75.48
2022-09-17T02:24:34.000Z,75.14
2022-09-17T02:25:30.000Z,75.18
2022-09-17T02:26:26.000Z,75.18
2022-09-17T02:27:36.000Z,75.29
2022-09-17T02:28:47.000Z,75.32
2022-09-17T02:29:32.000Z,75.37
2022-09-17T02:30:24.000Z,75.35
2022-09-17T02:31:24.000Z,75.32
2022-09-17T02:32:24.000Z,75.43
2022-09-17T02:33:26.000Z,75.42
2022-09-17T02:34:27.000Z,75.64
2022-09-17T02:35:24.000Z,75.65
2022-09-17T02:36:24.000Z,75.55
2022-09-17T02:37:24.000Z,75.43
2022-09-17T02:38:25.000Z,75.38
2022-09-17T02:39:25.000Z,75.29
2022-09-17T02:40:28.000Z,75.21
2022-09-17T02:41:35.000Z,75.36
2022-09-17T02:42:38.000Z,75.49
2022-09-17T02:43:38.000Z,75.29
2022-09-17T02:44:39.000Z,75.15
2022-09-17T02:45:38.000Z,74.99
2022-09-17T02:46:44.000Z,75.21
2022-09-17T02:47:34.000Z,75.48
2022-09-17T02:48:46.000Z,75.29
2022-09-17T02:49:34.000Z,75.52
2022-09-17T02:50:47.000Z,75.65
2022-09-17T02:51:36.000Z,75.58
2022-09-17T02:52:44.000Z,75.42
2022-09-17T02:53:43.000Z,75.32
2022-09-17T02:54:30.000Z,75.55
2022-09-17T02:55:44.000Z,75.51
2022-09-17T02:56:38.000Z,75.61
2022-09-17T02:57:37.000Z,75.63
2022-09-17T02:58:35.000Z,75.58
2022-09-17T02:59:48.000Z,75.49
2022-09-17T03:00:25.000Z,75.80
2022-09-17T03:01:30.000Z,75.66
2022-09-17T03:02:30.000Z,76.02
2022-09-17T03:03:34.000Z,76.15
2022-09-17T03:04:26.000Z,75.97
2022-09-17T03:05:25.000Z,75.90
2022-09-17T03:06:24.000Z,76.37
2022-09-17T03:07:24.000Z,75.83
2022-09-17T03:08:30.000Z,75.92
2022-09-17T03:09:24.000Z,75.99
2022-09-17T03:10:24.000Z,76.11
2022-09-17T03:11:24.000Z,76.10
2022-09-17T03:12:25.000Z,75.94
2022-09-17T03:13:24.000Z,75.85
2022-09-17T03:14:24.000Z,76.28
2022-09-17T03:15:24.000Z,76.26
2022-09-17T03:16:23.000Z,76.06
2022-09-17T03:17:24.000Z,76.14
2022-09-17T03:18:23.000Z,76.42
2022-09-17T03:19:24.000Z,76.33
2022-09-17T03:20:24.000Z,76.31
2022-09-17T03:21:24.000Z,76.28
2022-09-17T03:22:24.000Z,76.25
2022-09-17T03:23:26.000Z,75.67
2022-09-17T03:24:24.000Z,75.88
2022-09-17T03:25:24.000Z,75.99
2022-09-17T03:26:24.000Z,75.91
2022-09-17T03:27:24.000Z,76.11
2022-09-17T03:28:25.000Z,76.00
2022-09-17T03:29:24.000Z,76.26
2022-09-17T03:30:23.000Z,75.85
2022-09-17T03:31:23.000Z,75.67
2022-09-17T03:32:24.000Z,75.65
2022-09-17T03:33:24.000Z,75.47
2022-09-17T03:34:24.000Z,75.65
2022-09-17T03:35:24.000Z,75.80
2022-09-17T03:36:24.000Z,75.82
2022-09-17T03:37:24.000Z,75.72
2022-09-17T03:38:23.000Z,75.91
2022-09-17T03:39:24.000Z,75.97
2022-09-17T03:40:24.000Z,76.46
2022-09-17T03:41:24.000Z,76.20
2022-09-17T03:42:24.000Z,76.13
2022-09-17T03:43:24.000Z,75.95
2022-09-17T03:44:24.000Z,76.08
2022-09-17T03:45:24.000Z,75.89
2022-09-17T03:46:23.000Z,75.87
2022-09-17T03:47:23.000Z,75.79
2022-09-17T03:48:24.000Z,75.86
2022-09-17T03:49:23.000Z,75.73
2022-09-17T03:50:24.000Z,75.72
2022-09-17T03:51:23.000Z,75.79
2022-09-17T03:52:23.000Z,75.77
2022-09-17T03:53:23.000Z,75.69
2022-09-17T03:54:24.000Z,75.58
2022-09-17T03:55:23.000Z,75.62
2022-09-17T03:56:24.000Z,75.76
2022-09-17T03:57:24.000Z,76.43
2022-09-17T03:58:24.000Z,76.16
2022-09-17T03:59:23.000Z,76.46
2022-09-17T04:00:23.000Z,76.00
2022-09-17T04:01:24.000Z,76.03
2022-09-17T04:02:23.000Z,76.58
2022-09-17T04:03:25.000Z,77.23
2022-09-17T04:04:24.000Z,76.85
2022-09-17T04:05:23.000Z,76.65
2022-09-17T04:06:24.000Z,76.87
2022-09-17T04:07:24.000Z,76.68
2022-09-17T04:08:23.000Z,76.48
2022-09-17T04:09:23.000Z,76.47
2022-09-17T04:10:23.000Z,76.54
2022-09-17T04:11:23.000Z,76.50
2022-09-17T04:12:23.000Z,77.04
2022-09-17T04:13:24.000Z,76.81
2022-09-17T04:14:23.000Z,76.66
2022-09-17T04:15:24.000Z,76.69
2022-09-17T04:16:23.000Z,76.68
2022-09-17T04:17:23.000Z,77.22
2022-09-17T04:18:23.000Z,76.87
2022-09-17T04:19:23.000Z,76.65
2022-09-17T04:20:23.000Z,76.58
2022-09-17T04:21:23.000Z,76.84
2022-09-17T04:22:24.000Z,77.13
2022-09-17T04:23:23.000Z,76.73
2022-09-17T04:24:23.000Z,76.51
2022-09-17T04:25:23.000Z,77.00
2022-09-17T04:26:23.000Z,76.85
2022-09-17T04:27:23.000Z,76.97
2022-09-17T04:28:24.000Z,76.97
2022-09-17T04:29:24.000Z,77.03
2022-09-17T04:30:23.000Z,76.78
2022-09-17T04:31:25.000Z,76.69
2022-09-17T04:32:23.000Z,76.60
2022-09-17T04:33:24.000Z,76.88
2022-09-17T04:34:23.000Z,77.08
2022-09-17T04:35:24.000Z,76.94
2022-09-17T04:36:23.000Z,76.91
2022-09-17T04:37:24.000Z,76.91
2022-09-17T04:38:23.000Z,77.20
2022-09-17T04:39:23.000Z,77.04
2022-09-17T04:40:25.000Z,77.05
2022-09-17T04:41:23.000Z,77.03
2022-09-17T04:42:23.000Z,77.11
2022-09-17T04:43:23.000Z,77.21
2022-09-17T04:44:23.000Z,77.21
2022-09-17T04:45:24.000Z,77.18
2022-09-17T04:46:24.000Z,77.15
2022-09-17T04:47:24.000Z,76.94
2022-09-17T04:48:24.000Z,76.96
2022-09-17T04:49:28.000Z,76.86
2022-09-17T04:50:24.000Z,77.38
2022-09-17T04:51:24.000Z,77.62
2022-09-17T04:52:24.000Z,77.48
2022-09-17T04:53:24.000Z,77.51
2022-09-17T04:54:24.000Z,77.43
2022-09-17T04:55:25.000Z,77.29
2022-09-17T04:56:24.000Z,77.04
2022-09-17T04:57:25.000Z,77.41
2022-09-17T04:58:24.000Z,77.35
2022-09-17T04:59:24.000Z,77.29
2022-09-17T05:00:24.000Z,77.22
2022-09-17T05:01:24.000Z,77.34
2022-09-17T05:02:24.000Z,77.39
2022-09-17T05:03:24.000Z,77.29
2022-09-17T05:04:24.000Z,77.61
2022-09-17T05:05:24.000Z,77.75
2022-09-17T05:06:24.000Z,77.69
2022-09-17T05:07:24.000Z,77.45
2022-09-17T05:08:24.000Z,77.82
2022-09-17T05:09:24.000Z,77.54
2022-09-17T05:10:25.000Z,77.48
2022-09-17T05:11:24.000Z,77.76
2022-09-17T05:12:24.000Z,77.92
2022-09-17T05:13:24.000Z,77.75
2022-09-17T05:14:24.000Z,77.50
2022-09-17T05:15:25.000Z,77.67
2022-09-17T05:16:24.000Z,77.54
2022-09-17T05:17:23.000Z,77.40
2022-09-17T05:18:25.000Z,77.55
2022-09-17T05:19:24.000Z,77.47
2022-09-17T05:20:23.000Z,77.45
2022-09-17T05:21:24.000Z,77.41
2022-09-17T05:22:24.000Z,77.52
2022-09-17T05:23:23.000Z,77.66
2022-09-17T05:24:24.000Z,77.70
2022-09-17T05:25:25.000Z,77.59
2022-09-17T05:26:23.000Z,78.02
2022-09-17T05:27:24.000Z,78.07
2022-09-17T05:28:24.000Z,78.69
2022-09-17T05:29:27.000Z,79.53
2022-09-17T05:30:24.000Z,78.98
2022-09-17T05:31:23.000Z,79.14
2022-09-17T05:32:23.000Z,78.91
2022-09-17T05:33:24.000Z,78.94
2022-09-17T05:34:24.000Z,79.77
2022-09-17T05:35:23.000Z,79.57
2022-09-17T05:36:23.000Z,79.78
2022-09-17T05:37:24.000Z,80.10
2022-09-17T05:38:24.000Z,80.13
2022-09-17T05:39:24.000Z,80.14
2022-09-17T05:40:24.000Z,79.98
2022-09-17T05:41:23.000Z,79.85
2022-09-17T05:42:24.000Z,80.17
2022-09-17T05:43:24.000Z,80.36
2022-09-17T05:44:24.000Z,80.27
2022-09-17T05:45:24.000Z,80.36
2022-09-17T05:46:23.000Z,80.48
2022-09-17T05:47:24.000Z,81.03
2022-09-17T05:48:24.000Z,80.65
2022-09-17T05:49:24.000Z,80.91
2022-09-17T05:50:25.000Z,80.73
2022-09-17T05:51:24.000Z,81.39
2022-09-17T05:52:26.000Z,80.86
2022-09-17T05:53:23.000Z,80.61
2022-09-17T05:54:24.000Z,80.73
2022-09-17T05:55:24.000Z,80.74
2022-09-17T05:56:24.000Z,80.74
2022-09-17T05:57:27.000Z,80.93
2022-09-17T05:58:24.000Z,81.62
2022-09-17T05:59:23.000Z,81.94
2022-09-17T06:00:23.000Z,82.39
2022-09-17T06:01:24.000Z,82.50
2022-09-17T06:02:24.000Z,82.21
2022-09-17T06:03:24.000Z,82.39
2022-09-17T06:04:24.000Z,81.86
2022-09-17T06:05:24.000Z,81.98
2022-09-17T06:06:27.000Z,82.06
2022-09-17T06:07:23.000Z,82.25
2022-09-17T06:08:25.000Z,82.41
2022-09-17T06:09:24.000Z,82.39
2022-09-17T06:10:24.000Z,82.53
2022-09-17T06:11:24.000Z,82.33
2022-09-17T06:12:29.000Z,81.84
2022-09-17T06:13:24.000Z,82.65
2022-09-17T06:14:23.000Z,83.10
2022-09-17T06:15:25.000Z,83.54
2022-09-17T06:16:24.000Z,82.87
2022-09-17T06:17:27.000Z,83.00
2022-09-17T06:18:23.000Z,83.22
2022-09-17T06:19:23.000Z,82.73
2022-09-17T06:20:23.000Z,83.02
2022-09-17T06:21:23.000Z,83.28
2022-09-17T06:22:24.000Z,83.77
2022-09-17T06:23:24.000Z,84.17
2022-09-17T06:24:24.000Z,83.19
2022-09-17T06:25:24.000Z,83.56
2022-09-17T06:26:23.000Z,83.17
2022-09-17T06:27:31.000Z,83.34
2022-09-17T06:28:25.000Z,83.41
2022-09-17T06:29:23.000Z,83.25
2022-09-17T06:30:24.000Z,83.68
2022-09-17T06:31:23.000Z,83.33
2022-09-17T06:32:24.000Z,83.31
2022-09-17T06:33:25.000Z,83.23
2022-09-17T06:34:23.000Z,83.13
2022-09-17T06:35:23.000Z,83.82
2022-09-17T06:36:24.000Z,83.68
2022-09-17T06:37:31.000Z,83.18
2022-09-17T06:38:24.000Z,82.87
2022-09-17T06:39:23.000Z,83.44
2022-09-17T06:40:24.000Z,84.55
2022-09-17T06:41:23.000Z,83.98
2022-09-17T06:42:24.000Z,83.57
2022-09-17T06:43:24.000Z,83.87
2022-09-17T06:44:23.000Z,83.50
2022-09-17T06:45:24.000Z,83.15
2022-09-17T06:46:24.000Z,83.05
2022-09-17T06:47:23.000Z,83.38
2022-09-17T06:48:25.000Z,83.19
2022-09-17T06:49:23.000Z,83.31
2022-09-17T06:50:23.000Z,83.77
2022-09-17T06:51:23.000Z,83.86
2022-09-17T06:52:24.000Z,83.99
2022-09-17T06:53:23.000Z,83.53
2022-09-17T06:54:23.000Z,84.21
2022-09-17T06:55:23.000Z,83.60
2022-09-17T06:56:23.000Z,83.42
2022-09-17T06:57:23.000Z,83.86
2022-09-17T06:58:24.000Z,83.38
2022-09-17T06:59:25.000Z,83.52
2022-09-17T07:00:24.000Z,84.01
2022-09-17T07:01:23.000Z,83.67
2022-09-17T07:02:23.000Z,83.39
2022-09-17T07:03:23.000Z,83.46
2022-09-17T07:04:23.000Z,83.36
2022-09-17T07:05:25.000Z,83.40
2022-09-17T07:06:23.000Z,83.14
2022-09-17T07:07:23.000Z,83.07
2022-09-17T07:08:24.000Z,83.14
2022-09-17T07:09:23.000Z,83.24
2022-09-17T07:10:25.000Z,83.52
2022-09-17T07:11:23.000Z,83.36
2022-09-17T07:12:23.000Z,83.37
2022-09-17T07:13:24.000Z,83.52
2022-09-17T07:14:23.000Z,83.14
2022-09-17T07:15:23.000Z,83.49
2022-09-17T07:16:25.000Z,84.14
2022-09-17T07:17:26.000Z,83.77
2022-09-17T07:18:24.000Z,84.08
2022-09-17T07:19:23.000Z,83.73
2022-09-17T07:20:23.000Z,84.00
2022-09-17T07:21:23.000Z,83.98
2022-09-17T07:22:23.000Z,84.09
2022-09-17T07:23:26.000Z,83.92
2022-09-17T07:24:23.000Z,83.83
2022-09-17T07:25:25.000Z,84.12
2022-09-17T07:26:23.000Z,83.99
2022-09-17T07:27:26.000Z,83.74
2022-09-17T07:28:25.000Z,83.97
2022-09-17T07:29:26.000Z,84.06
2022-09-17T07:30:23.000Z,84.01
2022-09-17T07:31:23.000Z,83.67
2022-09-17T07:32:24.000Z,83.45
2022-09-17T07:33:25.000Z,84.10
2022-09-17T07:34:25.000Z,83.82
2022-09-17T07:35:23.000Z,83.86
2022-09-17T07:36:23.000Z,84.13
2022-09-17T07:37:23.000Z,83.29
2022-09-17T07:38:25.000Z,83.53
2022-09-17T07:39:23.000Z,83.37
2022-09-17T07:40:23.000Z,83.23
2022-09-17T07:41:23.000Z,83.47
2022-09-17T07:42:24.000Z,83.65
2022-09-17T07:43:26.000Z,84.05
2022-09-17T07:44:23.000Z,84.12
2022-09-17T07:45:23.000Z,84.15
2022-09-17T07:46:23.000Z,83.73
2022-09-17T07:47:23.000Z,83.33
2022-09-17T07:48:25.000Z,83.53
2022-09-17T07:49:24.000Z,82.26
2022-09-17T07:50:23.000Z,81.03
2022-09-17T07:51:25.000Z,81.73
2022-09-17T07:52:24.000Z,81.35
2022-09-17T07:53:24.000Z,80.51
2022-09-17T07:54:24.000Z,79.41
2022-09-17T07:55:24.000Z,79.31
2022-09-17T07:56:25.000Z,79.17
2022-09-17T07:57:24.000Z,80.92
2022-09-17T07:58:29.000Z,81.59
2022-09-17T07:59:24.000Z,83.07
2022-09-17T08:00:24.000Z,83.17
2022-09-17T08:01:25.000Z,82.91
2022-09-17T08:02:24.000Z,83.02
2022-09-17T08:03:23.000Z,83.50
2022-09-17T08:04:24.000Z,83.43
2022-09-17T08:05:24.000Z,83.82
2022-09-17T08:06:27.000Z,84.34
2022-09-17T08:07:24.000Z,83.58
2022-09-17T08:08:24.000Z,83.11
2022-09-17T08:09:23.000Z,83.33
2022-09-17T08:10:25.000Z,83.33
2022-09-17T08:11:27.000Z,83.15
2022-09-17T08:12:24.000Z,83.53
2022-09-17T08:13:23.000Z,83.85
2022-09-17T08:14:24.000Z,83.58
2022-09-17T08:15:24.000Z,83.36
2022-09-17T08:16:24.000Z,83.26
2022-09-17T08:17:24.000Z,83.45
2022-09-17T08:18:23.000Z,83.10
2022-09-17T08:19:24.000Z,83.12
2022-09-17T08:20:24.000Z,83.10
2022-09-17T08:21:23.000Z,82.84
2022-09-17T08:22:23.000Z,82.74
2022-09-17T08:23:25.000Z,82.15
2022-09-17T08:24:24.000Z,81.92
2022-09-17T08:25:23.000Z,82.21
2022-09-17T08:26:24.000Z,81.90
2022-09-17T08:27:23.000Z,81.80
2022-09-17T08:28:27.000Z,81.30
2022-09-17T08:29:23.000Z,81.60
2022-09-17T08:30:23.000Z,81.64
2022-09-17T08:31:24.000Z,81.25
2022-09-17T08:32:24.000Z,79.25
2022-09-17T08:33:23.000Z,78.43
2022-09-17T08:34:23.000Z,77.63
2022-09-17T08:35:24.000Z,76.50
2022-09-17T08:36:24.000Z,76.77
2022-09-17T08:37:26.000Z,77.04
2022-09-17T08:38:25.000Z,76.43
2022-09-17T08:39:23.000Z,76.34
2022-09-17T08:40:26.000Z,76.89
2022-09-17T08:41:36.000Z,76.35
2022-09-17T08:42:34.000Z,75.49
2022-09-17T08:43:25.000Z,75.84
2022-09-17T08:44:32.000Z,76.24
2022-09-17T08:45:25.000Z,74.96
2022-09-17T08:46:24.000Z,74.96
2022-09-17T08:47:28.000Z,75.05
2022-09-17T08:48:40.000Z,76.45
2022-09-17T08:49:34.000Z,75.58
2022-09-17T08:50:33.000Z,74.84
2022-09-17T08:51:41.000Z,74.63
2022-09-17T08:52:44.000Z,74.60
2022-09-17T08:53:47.000Z,74.02
2022-09-17T08:54:48.000Z,73.54
2022-09-17T08:55:34.000Z,73.98
2022-09-17T08:56:25.000Z,74.10
2022-09-17T08:57:37.000Z,74.55
2022-09-17T08:58:36.000Z,74.13
2022-09-17T08:59:32.000Z,73.55
2022-09-17T09:00:25.000Z,72.95
2022-09-17T09:01:34.000Z,72.34
2022-09-17T09:02:44.000Z,72.70
2022-09-17T09:03:41.000Z,71.89
2022-09-17T09:04:40.000Z,71.47
2022-09-17T09:05:30.000Z,71.01
2022-09-17T09:06:31.000Z,71.70
2022-09-17T09:07:35.000Z,70.93
2022-09-17T09:08:44.000Z,70.99
2022-09-17T09:09:30.000Z,71.50
2022-09-17T09:10:28.000Z,71.88
2022-09-17T09:11:29.000Z,71.99
2022-09-17T09:12:29.000Z,71.91
2022-09-17T09:13:32.000Z,71.34
2022-09-17T09:14:36.000Z,70.99
2022-09-17T09:15:36.000Z,70.86
2022-09-17T09:16:31.000Z,71.33
2022-09-17T09:17:33.000Z,70.88
2022-09-17T09:18:28.000Z,70.48
2022-09-17T09:19:28.000Z,70.65
2022-09-17T09:20:32.000Z,69.82
2022-09-17T09:21:27.000Z,70.48
2022-09-17T09:22:41.000Z,69.43
2022-09-17T09:23:41.000Z,70.05
2022-09-17T09:24:34.000Z,69.31
2022-09-17T09:25:35.000Z,70.57
2022-09-17T09:26:34.000Z,69.83
2022-09-17T09:27:35.000Z,68.91
2022-09-17T09:28:48.000Z,68.94
2022-09-17T09:29:34.000Z,69.13
2022-09-17T09:30:28.000Z,69.19
2022-09-17T09:31:34.000Z,69.12
2022-09-17T09:32:34.000Z,69.23
2022-09-17T09:33:32.000Z,69.19
2022-09-17T09:34:26.000Z,69.31
2022-09-17T09:35:27.000Z,69.83
2022-09-17T09:36:27.000Z,69.56
2022-09-17T09:37:32.000Z,69.64
2022-09-17T09:38:36.000Z,69.63
2022-09-17T09:39:28.000Z,70.19
2022-09-17T09:40:35.000Z,69.76
2022-09-17T09:41:44.000Z,69.99
2022-09-17T09:42:36.000Z,69.92
2022-09-17T09:43:38.000Z,69.91
2022-09-17T09:44:24.000Z,69.33
2022-09-17T09:45:38.000Z,67.12
2022-09-17T09:46:34.000Z,67.63
2022-09-17T09:47:51.000Z,67.68
2022-09-17T09:48:37.000Z,68.07
2022-09-17T09:49:49.000Z,67.22
2022-09-17T09:50:37.000Z,67.61
2022-09-17T09:51:39.000Z,68.20
2022-09-17T09:52:44.000Z,67.32
2022-09-17T09:53:51.000Z,67.94
2022-09-17T09:54:40.000Z,67.89
2022-09-17T09:55:44.000Z,65.93
2022-09-17T09:56:41.000Z,65.60
2022-09-17T09:57:34.000Z,65.10
2022-09-17T09:58:33.000Z,63.36
2022-09-17T09:59:25.000Z,64.03
2022-09-17T10:00:39.000Z,63.59
2022-09-17T10:01:26.000Z,64.22
2022-09-17T10:02:24.000Z,64.76
2022-09-17T10:03:31.000Z,65.21
2022-09-17T10:04:27.000Z,64.75
2022-09-17T10:05:24.000Z,63.13
2022-09-17T10:06:29.000Z,64.31
2022-09-17T10:07:24.000Z,64.09
2022-09-17T10:08:25.000Z,62.96
2022-09-17T10:09:24.000Z,64.35
2022-09-17T10:10:24.000Z,63.31
2022-09-17T10:11:26.000Z,63.89
2022-09-17T10:12:24.000Z,64.21
2022-09-17T10:13:25.000Z,64.25
2022-09-17T10:14:26.000Z,63.86
2022-09-17T10:15:27.000Z,64.16
2022-09-17T10:16:26.000Z,64.75
2022-09-17T10:17:25.000Z,64.22
2022-09-17T10:18:24.000Z,64.10
2022-09-17T10:19:24.000Z,64.08
2022-09-17T10:20:24.000Z,64.12
2022-09-17T10:21:30.000Z,63.99
2022-09-17T10:22:43.000Z,64.79
2022-09-17T10:23:30.000Z,63.72
2022-09-17T10:24:26.000Z,63.11
2022-09-17T10:25:30.000Z,62.90
2022-09-17T10:26:30.000Z,63.73
2022-09-17T10:27:25.000Z,64.16
2022-09-17T10:28:31.000Z,63.05
2022-09-17T10:29:24.000Z,63.33
2022-09-17T10:30:25.000Z,62.60
2022-09-17T10:31:23.000Z,62.81
2022-09-17T10:32:23.000Z,62.29
2022-09-17T10:33:29.000Z,62.76
2022-09-17T10:34:26.000Z,62.14
2022-09-17T10:35:32.000Z,62.57
2022-09-17T10:36:34.000Z,61.62
2022-09-17T10:37:33.000Z,61.85
2022-09-17T10:38:32.000Z,61.37
2022-09-17T10:39:33.000Z,62.03
2022-09-17T10:40:27.000Z,61.90
2022-09-17T10:41:24.000Z,61.89
2022-09-17T10:42:23.000Z,62.02
2022-09-17T10:43:23.000Z,61.54
2022-09-17T10:44:32.000Z,60.73
2022-09-17T10:45:27.000Z,59.92
2022-09-17T10:46:29.000Z,60.57
2022-09-17T10:47:27.000Z,61.04
2022-09-17T10:48:30.000Z,60.09
2022-09-17T10:49:36.000Z,59.80
2022-09-17T10:50:33.000Z,59.44
2022-09-17T10:51:24.000Z,59.86
2022-09-17T10:52:30.000Z,60.55
2022-09-17T10:53:25.000Z,61.01
2022-09-17T10:54:43.000Z,60.99
2022-09-17T10:55:36.000Z,60.93
2022-09-17T10:56:30.000Z,60.78
2022-09-17T10:57:37.000Z,59.90
2022-09-17T10:58:36.000Z,60.33
2022-09-17T10:59:43.000Z,59.87
2022-09-17T11:00:28.000Z,60.29
2022-09-17T11:01:57.000Z,60.42
2022-09-17T11:02:34.000Z,60.50
2022-09-17T11:03:44.000Z,59.50
2022-09-17T11:04:34.000Z,60.01
2022-09-17T11:05:44.000Z,60.20
2022-09-17T11:06:39.000Z,60.03
2022-09-17T11:07:38.000Z,59.11
2022-09-17T11:08:34.000Z,59.21
2022-09-17T11:09:35.000Z,59.56
2022-09-17T11:10:34.000Z,59.09
2022-09-17T11:11:47.000Z,58.87
2022-09-17T11:12:34.000Z,58.60
2022-09-17T11:13:36.000Z,58.84
2022-09-17T11:14:46.000Z,59.37
2022-09-17T11:15:38.000Z,56.81
2022-09-17T11:16:42.000Z,57.45
2022-09-17T11:17:34.000Z,57.31
2022-09-17T11:18:34.000Z,57.15
2022-09-17T11:19:34.000Z,55.99
2022-09-17T11:20:33.000Z,55.55
2022-09-17T11:21:44.000Z,55.93
2022-09-17T11:22:46.000Z,55.16
2022-09-17T11:23:34.000Z,55.90
2022-09-17T11:24:33.000Z,53.99
2022-09-17T11:25:51.000Z,54.77
2022-09-17T11:26:33.000Z,55.21
2022-09-17T11:27:33.000Z,55.66
2022-09-17T11:28:41.000Z,55.85
2022-09-17T11:29:33.000Z,56.99
2022-09-17T11:30:29.000Z,56.92
2022-09-17T11:31:47.000Z,57.48
2022-09-17T11:32:35.000Z,58.08
2022-09-17T11:33:46.000Z,58.26
2022-09-17T11:34:33.000Z,58.51
2022-09-17T11:35:31.000Z,57.98
2022-09-17T11:36:29.000Z,58.11
2022-09-17T11:37:48.000Z,57.77
2022-09-17T11:38:32.000Z,56.20
2022-09-17T11:39:40.000Z,56.54
2022-09-17T11:40:34.000Z,57.03
2022-09-17T11:41:34.000Z,56.64
2022-09-17T11:42:29.000Z,56.29
2022-09-17T11:43:44.000Z,55.06
2022-09-17T11:44:31.000Z,55.57
2022-09-17T11:45:34.000Z,54.63
2022-09-17T11:46:28.000Z,55.52
2022-09-17T11:47:31.000Z,55.70
2022-09-17T11:48:35.000Z,55.75
2022-09-17T11:49:32.000Z,56.03
2022-09-17T11:50:28.000Z,56.37
2022-09-17T11:51:32.000Z,55.58
2022-09-17T11:52:32.000Z,55.87
2022-09-17T11:53:32.000Z,56.49
2022-09-17T11:54:40.000Z,55.41
2022-09-17T11:55:32.000Z,55.37
2022-09-17T11:56:34.000Z,56.49
2022-09-17T11:57:29.000Z,55.96
2022-09-17T11:58:36.000Z,56.62
2022-09-17T11:59:33.000Z,56.76
2022-09-17T12:00:27.000Z,56.86
2022-09-17T12:01:33.000Z,56.27
2022-09-17T12:02:35.000Z,56.08
2022-09-17T12:03:30.000Z,56.35
2022-09-17T12:04:33.000Z,56.17
2022-09-17T12:05:29.000Z,56.69
2022-09-17T12:06:36.000Z,56.28
2022-09-17T12:07:46.000Z,57.00
2022-09-17T12:08:35.000Z,56.97
2022-09-17T12:09:29.000Z,57.33
2022-09-17T12:10:46.000Z,57.33
2022-09-17T12:11:33.000Z,57.09
2022-09-17T12:12:26.000Z,57.10
2022-09-17T12:13:34.000Z,57.12
2022-09-17T12:14:29.000Z,57.53
2022-09-17T12:15:27.000Z,57.52
2022-09-17T12:16:33.000Z,57.76
2022-09-17T12:17:30.000Z,58.16
2022-09-17T12:18:34.000Z,58.24
2022-09-17T12:19:34.000Z,57.59
2022-09-17T12:20:32.000Z,57.56
2022-09-17T12:21:34.000Z,57.33
2022-09-17T12:22:32.000Z,57.41
2022-09-17T12:23:33.000Z,57.76
2022-09-17T12:24:26.000Z,57.69
2022-09-17T12:25:33.000Z,57.01
2022-09-17T12:26:32.000Z,57.36
2022-09-17T12:27:33.000Z,57.15
2022-09-17T12:28:33.000Z,57.14
2022-09-17T12:29:33.000Z,57.53
2022-09-17T12:30:33.000Z,57.76
2022-09-17T12:31:33.000Z,58.21
2022-09-17T12:32:33.000Z,57.33
2022-09-17T12:33:41.000Z,57.75
2022-09-17T12:34:40.000Z,57.16
2022-09-17T12:35:48.000Z,57.35
2022-09-17T12:36:37.000Z,57.41
2022-09-17T12:37:45.000Z,57.96
2022-09-17T12:38:39.000Z,58.14
2022-09-17T12:39:42.000Z,57.82
2022-09-17T12:40:33.000Z,57.58
2022-09-17T12:41:34.000Z,57.26
2022-09-17T12:42:40.000Z,56.89
2022-09-17T12:43:37.000Z,56.40
2022-09-17T12:44:36.000Z,57.41
2022-09-17T12:45:33.000Z,57.02
2022-09-17T12:46:33.000Z,56.90
2022-09-17T12:47:33.000Z,56.59
2022-09-17T12:48:43.000Z,52.62
2022-09-17T12:49:37.000Z,52.06
2022-09-17T12:50:34.000Z,52.45
2022-09-17T12:51:46.000Z,53.09
2022-09-17T12:52:34.000Z,52.37